sensor_id;sensor_type;location;lat;lon;timestamp;P1;durP1;ratioP1;P2;durP2;ratioP2
44204;SDS011;30163;42.698;23.344;2022-07-18T00:01:46;3.22;;;2.40;;
44204;SDS011;30163;42.698;23.344;2022-07-18T00:04:11;6.63;;;3.25;;
44204;SDS011;30163;42.698;23.344;2022-07-18T00:06:37;4.85;;;2.38;;
44204;SDS011;30163;42.698;23.344;2022-07-18T00:09:03;9.68;;;2.55;;
44204;SDS011;30163;42.698;23.344;2022-07-18T00:11:28;4.90;;;2.33;;
44204;SDS011;30163;42.698;23.344;2022-07-18T00:13:54;4.40;;;2.60;;
44204;SDS011;30163;42.698;23.344;2022-07-18T00:16:20;4.90;;;2.60;;
44204;SDS011;30163;42.698;23.344;2022-07-18T00:18:46;3.60;;;2.35;;
44204;SDS011;30163;42.698;23.344;2022-07-18T00:21:11;3.83;;;2.33;;
44204;SDS011;30163;42.698;23.344;2022-07-18T00:23:37;8.35;;;2.85;;
44204;SDS011;30163;42.698;23.344;2022-07-18T00:26:02;3.60;;;2.20;;
44204;SDS011;30163;42.698;23.344;2022-07-18T00:28:28;6.28;;;2.70;;
44204;SDS011;30163;42.698;23.344;2022-07-18T00:30:53;6.97;;;2.58;;
44204;SDS011;30163;42.698;23.344;2022-07-18T00:33:19;3.03;;;2.08;;
44204;SDS011;30163;42.698;23.344;2022-07-18T00:35:45;4.20;;;2.10;;
44204;SDS011;30163;42.698;23.344;2022-07-18T00:38:10;6.38;;;2.53;;
44204;SDS011;30163;42.698;23.344;2022-07-18T00:40:35;4.03;;;2.30;;
44204;SDS011;30163;42.698;23.344;2022-07-18T00:43:01;6.13;;;2.78;;
44204;SDS011;30163;42.698;23.344;2022-07-18T00:45:26;4.15;;;2.35;;
44204;SDS011;30163;42.698;23.344;2022-07-18T00:47:52;4.22;;;2.55;;
44204;SDS011;30163;42.698;23.344;2022-07-18T00:50:18;6.57;;;2.10;;
44204;SDS011;30163;42.698;23.344;2022-07-18T00:52:45;4.15;;;2.25;;
44204;SDS011;30163;42.698;23.344;2022-07-18T00:55:11;4.45;;;2.15;;
44204;SDS011;30163;42.698;23.344;2022-07-18T00:57:37;3.38;;;2.30;;
44204;SDS011;30163;42.698;23.344;2022-07-18T01:00:05;3.25;;;1.90;;
44204;SDS011;30163;42.698;23.344;2022-07-18T01:02:51;4.22;;;2.47;;
44204;SDS011;30163;42.698;23.344;2022-07-18T01:05:17;4.10;;;2.47;;
44204;SDS011;30163;42.698;23.344;2022-07-18T01:07:42;5.15;;;1.90;;
44204;SDS011;30163;42.698;23.344;2022-07-18T01:10:08;5.03;;;2.53;;
44204;SDS011;30163;42.698;23.344;2022-07-18T01:12:33;4.57;;;2.20;;
44204;SDS011;30163;42.698;23.344;2022-07-18T01:14:59;5.05;;;1.92;;
44204;SDS011;30163;42.698;23.344;2022-07-18T01:17:24;2.55;;;1.67;;
44204;SDS011;30163;42.698;23.344;2022-07-18T01:19:50;4.57;;;2.08;;
44204;SDS011;30163;42.698;23.344;2022-07-18T01:22:17;4.72;;;1.83;;
44204;SDS011;30163;42.698;23.344;2022-07-18T01:24:44;3.20;;;2.00;;
44204;SDS011;30163;42.698;23.344;2022-07-18T01:27:20;3.28;;;1.98;;
44204;SDS011;30163;42.698;23.344;2022-07-18T01:29:47;6.35;;;2.20;;
44204;SDS011;30163;42.698;23.344;2022-07-18T01:32:14;7.13;;;2.15;;
44204;SDS011;30163;42.698;23.344;2022-07-18T01:34:40;8.63;;;2.10;;
44204;SDS011;30163;42.698;23.344;2022-07-18T01:37:06;2.15;;;1.70;;
44204;SDS011;30163;42.698;23.344;2022-07-18T01:39:32;4.85;;;2.08;;
44204;SDS011;30163;42.698;23.344;2022-07-18T01:42:02;2.63;;;1.80;;
44204;SDS011;30163;42.698;23.344;2022-07-18T01:44:29;3.17;;;1.73;;
44204;SDS011;30163;42.698;23.344;2022-07-18T01:46:55;3.33;;;2.13;;
44204;SDS011;30163;42.698;23.344;2022-07-18T01:49:21;4.57;;;2.08;;
44204;SDS011;30163;42.698;23.344;2022-07-18T01:51:47;5.55;;;2.10;;
44204;SDS011;30163;42.698;23.344;2022-07-18T01:54:14;2.85;;;2.05;;
44204;SDS011;30163;42.698;23.344;2022-07-18T01:56:39;8.65;;;2.15;;
44204;SDS011;30163;42.698;23.344;2022-07-18T01:59:05;14.80;;;2.30;;
44204;SDS011;30163;42.698;23.344;2022-07-18T02:01:31;2.78;;;1.90;;
44204;SDS011;30163;42.698;23.344;2022-07-18T02:03:56;1.85;;;1.58;;
44204;SDS011;30163;42.698;23.344;2022-07-18T02:06:21;4.00;;;2.15;;
44204;SDS011;30163;42.698;23.344;2022-07-18T02:08:47;2.38;;;1.95;;
44204;SDS011;30163;42.698;23.344;2022-07-18T02:11:12;1.88;;;1.42;;
44204;SDS011;30163;42.698;23.344;2022-07-18T02:13:38;2.03;;;1.75;;
44204;SDS011;30163;42.698;23.344;2022-07-18T02:16:04;2.90;;;2.08;;
44204;SDS011;30163;42.698;23.344;2022-07-18T02:18:30;6.70;;;2.22;;
44204;SDS011;30163;42.698;23.344;2022-07-18T02:21:00;2.65;;;1.80;;
44204;SDS011;30163;42.698;23.344;2022-07-18T02:23:26;2.00;;;1.80;;
44204;SDS011;30163;42.698;23.344;2022-07-18T02:25:52;3.05;;;2.25;;
44204;SDS011;30163;42.698;23.344;2022-07-18T02:28:18;3.00;;;1.70;;
44204;SDS011;30163;42.698;23.344;2022-07-18T02:30:43;2.38;;;1.73;;
44204;SDS011;30163;42.698;23.344;2022-07-18T02:33:09;10.75;;;2.28;;
44204;SDS011;30163;42.698;23.344;2022-07-18T02:35:34;4.05;;;1.98;;
44204;SDS011;30163;42.698;23.344;2022-07-18T02:38:00;3.33;;;1.88;;
44204;SDS011;30163;42.698;23.344;2022-07-18T02:40:25;2.42;;;1.75;;
44204;SDS011;30163;42.698;23.344;2022-07-18T02:42:51;3.42;;;2.03;;
44204;SDS011;30163;42.698;23.344;2022-07-18T02:45:16;5.85;;;1.98;;
44204;SDS011;30163;42.698;23.344;2022-07-18T02:47:42;8.23;;;2.00;;
44204;SDS011;30163;42.698;23.344;2022-07-18T02:50:07;5.85;;;2.00;;
44204;SDS011;30163;42.698;23.344;2022-07-18T02:52:34;2.72;;;2.00;;
44204;SDS011;30163;42.698;23.344;2022-07-18T02:54:59;3.83;;;2.20;;
44204;SDS011;30163;42.698;23.344;2022-07-18T02:57:26;6.70;;;2.10;;
44204;SDS011;30163;42.698;23.344;2022-07-18T02:59:52;8.90;;;2.13;;
44204;SDS011;30163;42.698;23.344;2022-07-18T03:02:18;3.05;;;1.80;;
44204;SDS011;30163;42.698;23.344;2022-07-18T03:04:43;10.35;;;2.33;;
44204;SDS011;30163;42.698;23.344;2022-07-18T03:07:09;5.57;;;2.40;;
44204;SDS011;30163;42.698;23.344;2022-07-18T03:09:34;5.43;;;2.45;;
44204;SDS011;30163;42.698;23.344;2022-07-18T03:11:59;2.65;;;1.85;;
44204;SDS011;30163;42.698;23.344;2022-07-18T03:14:25;2.58;;;1.52;;
44204;SDS011;30163;42.698;23.344;2022-07-18T03:16:50;12.18;;;1.80;;
44204;SDS011;30163;42.698;23.344;2022-07-18T03:19:16;4.13;;;1.58;;
44204;SDS011;30163;42.698;23.344;2022-07-18T03:21:41;5.68;;;2.08;;
44204;SDS011;30163;42.698;23.344;2022-07-18T03:24:07;4.78;;;2.30;;
44204;SDS011;30163;42.698;23.344;2022-07-18T03:26:32;3.50;;;1.65;;
44204;SDS011;30163;42.698;23.344;2022-07-18T03:28:58;4.38;;;1.73;;
44204;SDS011;30163;42.698;23.344;2022-07-18T03:31:23;3.30;;;2.05;;
44204;SDS011;30163;42.698;23.344;2022-07-18T03:33:49;1.40;;;1.30;;
44204;SDS011;30163;42.698;23.344;2022-07-18T03:36:14;5.35;;;2.15;;
44204;SDS011;30163;42.698;23.344;2022-07-18T03:38:40;3.75;;;1.58;;
44204;SDS011;30163;42.698;23.344;2022-07-18T03:41:09;5.57;;;1.88;;
44204;SDS011;30163;42.698;23.344;2022-07-18T03:43:36;4.45;;;2.08;;
44204;SDS011;30163;42.698;23.344;2022-07-18T03:46:02;3.20;;;1.85;;
44204;SDS011;30163;42.698;23.344;2022-07-18T03:48:28;5.88;;;1.80;;
44204;SDS011;30163;42.698;23.344;2022-07-18T03:50:53;10.63;;;2.47;;
44204;SDS011;30163;42.698;23.344;2022-07-18T03:53:18;3.53;;;2.20;;
44204;SDS011;30163;42.698;23.344;2022-07-18T03:55:44;5.97;;;1.95;;
44204;SDS011;30163;42.698;23.344;2022-07-18T03:58:09;4.70;;;2.53;;
44204;SDS011;30163;42.698;23.344;2022-07-18T04:00:35;9.45;;;2.97;;
44204;SDS011;30163;42.698;23.344;2022-07-18T04:03:00;7.85;;;4.00;;
44204;SDS011;30163;42.698;23.344;2022-07-18T04:05:25;10.82;;;2.53;;
44204;SDS011;30163;42.698;23.344;2022-07-18T04:07:51;6.57;;;2.78;;
44204;SDS011;30163;42.698;23.344;2022-07-18T04:10:16;20.67;;;2.88;;
44204;SDS011;30163;42.698;23.344;2022-07-18T04:12:49;12.02;;;2.90;;
44204;SDS011;30163;42.698;23.344;2022-07-18T04:15:16;7.35;;;2.85;;
44204;SDS011;30163;42.698;23.344;2022-07-18T04:17:42;4.32;;;2.63;;
44204;SDS011;30163;42.698;23.344;2022-07-18T04:20:08;17.52;;;3.22;;
44204;SDS011;30163;42.698;23.344;2022-07-18T04:25:35;9.27;;;2.55;;
44204;SDS011;30163;42.698;23.344;2022-07-18T04:28:01;5.53;;;2.97;;
44204;SDS011;30163;42.698;23.344;2022-07-18T04:30:28;2.25;;;1.58;;
44204;SDS011;30163;42.698;23.344;2022-07-18T04:32:54;4.75;;;2.17;;
44204;SDS011;30163;42.698;23.344;2022-07-18T04:35:20;8.90;;;2.00;;
44204;SDS011;30163;42.698;23.344;2022-07-18T04:37:47;5.30;;;2.00;;
44204;SDS011;30163;42.698;23.344;2022-07-18T04:40:12;4.55;;;1.95;;
44204;SDS011;30163;42.698;23.344;2022-07-18T04:42:40;2.53;;;1.83;;
44204;SDS011;30163;42.698;23.344;2022-07-18T04:45:06;5.82;;;1.98;;
44204;SDS011;30163;42.698;23.344;2022-07-18T04:47:32;6.40;;;2.63;;
44204;SDS011;30163;42.698;23.344;2022-07-18T04:49:57;5.18;;;2.15;;
44204;SDS011;30163;42.698;23.344;2022-07-18T04:52:23;6.97;;;2.60;;
44204;SDS011;30163;42.698;23.344;2022-07-18T04:54:48;10.65;;;3.53;;
44204;SDS011;30163;42.698;23.344;2022-07-18T04:57:15;9.02;;;3.47;;
44204;SDS011;30163;42.698;23.344;2022-07-18T04:59:41;9.27;;;4.43;;
44204;SDS011;30163;42.698;23.344;2022-07-18T05:02:07;18.13;;;5.07;;
44204;SDS011;30163;42.698;23.344;2022-07-18T05:04:33;10.38;;;5.35;;
44204;SDS011;30163;42.698;23.344;2022-07-18T05:06:59;13.05;;;6.22;;
44204;SDS011;30163;42.698;23.344;2022-07-18T05:09:25;12.70;;;5.82;;
44204;SDS011;30163;42.698;23.344;2022-07-18T05:11:51;7.00;;;3.00;;
44204;SDS011;30163;42.698;23.344;2022-07-18T05:14:17;12.45;;;3.60;;
44204;SDS011;30163;42.698;23.344;2022-07-18T05:16:42;8.73;;;4.03;;
44204;SDS011;30163;42.698;23.344;2022-07-18T05:19:08;8.27;;;3.58;;
44204;SDS011;30163;42.698;23.344;2022-07-18T05:21:33;6.95;;;3.03;;
44204;SDS011;30163;42.698;23.344;2022-07-18T05:23:58;17.50;;;4.43;;
44204;SDS011;30163;42.698;23.344;2022-07-18T05:26:24;16.75;;;3.47;;
44204;SDS011;30163;42.698;23.344;2022-07-18T05:28:49;10.02;;;3.22;;
44204;SDS011;30163;42.698;23.344;2022-07-18T05:31:15;14.02;;;3.75;;
44204;SDS011;30163;42.698;23.344;2022-07-18T05:33:40;15.45;;;3.97;;
44204;SDS011;30163;42.698;23.344;2022-07-18T05:36:06;9.77;;;2.22;;
44204;SDS011;30163;42.698;23.344;2022-07-18T05:38:32;9.90;;;1.88;;
44204;SDS011;30163;42.698;23.344;2022-07-18T05:40:57;6.68;;;1.98;;
44204;SDS011;30163;42.698;23.344;2022-07-18T05:43:23;2.53;;;1.63;;
44204;SDS011;30163;42.698;23.344;2022-07-18T05:45:48;4.22;;;1.95;;
44204;SDS011;30163;42.698;23.344;2022-07-18T05:48:13;4.78;;;1.83;;
44204;SDS011;30163;42.698;23.344;2022-07-18T05:50:39;3.08;;;2.15;;
44204;SDS011;30163;42.698;23.344;2022-07-18T05:53:05;6.63;;;1.70;;
44204;SDS011;30163;42.698;23.344;2022-07-18T05:55:30;5.57;;;2.03;;
44204;SDS011;30163;42.698;23.344;2022-07-18T05:57:56;5.15;;;1.88;;
44204;SDS011;30163;42.698;23.344;2022-07-18T06:00:21;4.32;;;2.35;;
44204;SDS011;30163;42.698;23.344;2022-07-18T06:02:48;2.72;;;1.80;;
44204;SDS011;30163;42.698;23.344;2022-07-18T06:05:14;7.72;;;1.67;;
44204;SDS011;30163;42.698;23.344;2022-07-18T06:07:39;4.28;;;2.00;;
44204;SDS011;30163;42.698;23.344;2022-07-18T06:10:05;10.60;;;2.20;;
44204;SDS011;30163;42.698;23.344;2022-07-18T06:12:31;1.95;;;1.52;;
44204;SDS011;30163;42.698;23.344;2022-07-18T06:14:57;2.97;;;1.33;;
44204;SDS011;30163;42.698;23.344;2022-07-18T06:17:23;5.32;;;2.70;;
44204;SDS011;30163;42.698;23.344;2022-07-18T06:19:49;9.15;;;1.83;;
44204;SDS011;30163;42.698;23.344;2022-07-18T06:22:14;3.70;;;2.00;;
44204;SDS011;30163;42.698;23.344;2022-07-18T06:24:40;7.25;;;1.70;;
44204;SDS011;30163;42.698;23.344;2022-07-18T06:27:05;7.82;;;2.05;;
44204;SDS011;30163;42.698;23.344;2022-07-18T06:29:31;3.70;;;1.73;;
44204;SDS011;30163;42.698;23.344;2022-07-18T06:31:56;2.38;;;1.65;;
44204;SDS011;30163;42.698;23.344;2022-07-18T06:34:22;3.47;;;2.28;;
44204;SDS011;30163;42.698;23.344;2022-07-18T06:36:47;4.22;;;2.15;;
44204;SDS011;30163;42.698;23.344;2022-07-18T06:39:12;8.18;;;1.60;;
44204;SDS011;30163;42.698;23.344;2022-07-18T06:41:41;3.72;;;1.60;;
44204;SDS011;30163;42.698;23.344;2022-07-18T06:44:06;7.90;;;1.60;;
44204;SDS011;30163;42.698;23.344;2022-07-18T06:46:32;5.20;;;1.42;;
44204;SDS011;30163;42.698;23.344;2022-07-18T06:48:57;3.47;;;1.52;;
44204;SDS011;30163;42.698;23.344;2022-07-18T06:51:23;2.92;;;1.50;;
44204;SDS011;30163;42.698;23.344;2022-07-18T06:53:50;3.92;;;1.52;;
44204;SDS011;30163;42.698;23.344;2022-07-18T06:56:16;6.70;;;1.70;;
44204;SDS011;30163;42.698;23.344;2022-07-18T06:58:41;6.38;;;2.03;;
44204;SDS011;30163;42.698;23.344;2022-07-18T07:01:07;6.07;;;1.92;;
44204;SDS011;30163;42.698;23.344;2022-07-18T07:03:32;3.13;;;1.50;;
44204;SDS011;30163;42.698;23.344;2022-07-18T07:05:58;19.80;;;1.98;;
44204;SDS011;30163;42.698;23.344;2022-07-18T07:08:29;5.90;;;1.67;;
44204;SDS011;30163;42.698;23.344;2022-07-18T07:10:56;11.63;;;1.65;;
44204;SDS011;30163;42.698;23.344;2022-07-18T07:13:22;2.78;;;1.40;;
44204;SDS011;30163;42.698;23.344;2022-07-18T07:15:47;2.08;;;1.40;;
44204;SDS011;30163;42.698;23.344;2022-07-18T07:18:13;9.15;;;1.23;;
44204;SDS011;30163;42.698;23.344;2022-07-18T07:20:38;1.80;;;1.25;;
44204;SDS011;30163;42.698;23.344;2022-07-18T07:23:04;1.60;;;1.33;;
44204;SDS011;30163;42.698;23.344;2022-07-18T07:25:32;2.92;;;1.58;;
44204;SDS011;30163;42.698;23.344;2022-07-18T07:27:57;2.40;;;1.50;;
44204;SDS011;30163;42.698;23.344;2022-07-18T07:30:23;1.73;;;1.35;;
44204;SDS011;30163;42.698;23.344;2022-07-18T07:32:49;1.83;;;1.30;;
44204;SDS011;30163;42.698;23.344;2022-07-18T07:35:15;5.30;;;1.30;;
44204;SDS011;30163;42.698;23.344;2022-07-18T07:37:43;7.70;;;1.63;;
44204;SDS011;30163;42.698;23.344;2022-07-18T07:40:13;3.97;;;1.25;;
44204;SDS011;30163;42.698;23.344;2022-07-18T07:42:39;8.65;;;1.67;;
44204;SDS011;30163;42.698;23.344;2022-07-18T07:45:05;4.00;;;1.30;;
44204;SDS011;30163;42.698;23.344;2022-07-18T07:47:31;2.83;;;1.48;;
44204;SDS011;30163;42.698;23.344;2022-07-18T07:49:56;5.00;;;1.55;;
44204;SDS011;30163;42.698;23.344;2022-07-18T07:52:22;1.95;;;1.00;;
44204;SDS011;30163;42.698;23.344;2022-07-18T07:54:49;5.03;;;1.35;;
44204;SDS011;30163;42.698;23.344;2022-07-18T07:57:15;2.25;;;1.48;;
44204;SDS011;30163;42.698;23.344;2022-07-18T07:59:41;9.15;;;1.10;;
44204;SDS011;30163;42.698;23.344;2022-07-18T08:02:06;2.70;;;1.63;;
44204;SDS011;30163;42.698;23.344;2022-07-18T08:04:32;4.63;;;0.98;;
44204;SDS011;30163;42.698;23.344;2022-07-18T08:06:57;4.65;;;1.27;;
44204;SDS011;30163;42.698;23.344;2022-07-18T08:09:22;3.65;;;1.55;;
44204;SDS011;30163;42.698;23.344;2022-07-18T08:11:48;7.53;;;1.80;;
44204;SDS011;30163;42.698;23.344;2022-07-18T08:14:13;5.05;;;1.38;;
44204;SDS011;30163;42.698;23.344;2022-07-18T08:16:39;4.72;;;1.60;;
44204;SDS011;30163;42.698;23.344;2022-07-18T08:19:04;5.72;;;1.13;;
44204;SDS011;30163;42.698;23.344;2022-07-18T08:21:30;9.23;;;2.10;;
44204;SDS011;30163;42.698;23.344;2022-07-18T08:23:55;4.03;;;1.35;;
44204;SDS011;30163;42.698;23.344;2022-07-18T08:26:21;6.93;;;1.48;;
44204;SDS011;30163;42.698;23.344;2022-07-18T08:28:46;3.35;;;1.50;;
44204;SDS011;30163;42.698;23.344;2022-07-18T08:31:12;3.25;;;1.25;;
44204;SDS011;30163;42.698;23.344;2022-07-18T08:33:38;3.70;;;1.60;;
44204;SDS011;30163;42.698;23.344;2022-07-18T08:36:03;2.10;;;1.58;;
44204;SDS011;30163;42.698;23.344;2022-07-18T08:38:29;3.88;;;2.00;;
44204;SDS011;30163;42.698;23.344;2022-07-18T08:40:55;3.47;;;1.25;;
44204;SDS011;30163;42.698;23.344;2022-07-18T08:43:21;3.28;;;1.80;;
44204;SDS011;30163;42.698;23.344;2022-07-18T08:45:49;4.05;;;1.77;;
44204;SDS011;30163;42.698;23.344;2022-07-18T08:48:17;2.22;;;1.27;;
44204;SDS011;30163;42.698;23.344;2022-07-18T08:50:43;4.88;;;1.17;;
44204;SDS011;30163;42.698;23.344;2022-07-18T08:53:12;1.50;;;1.17;;
44204;SDS011;30163;42.698;23.344;2022-07-18T08:55:38;1.13;;;0.98;;
44204;SDS011;30163;42.698;23.344;2022-07-18T08:58:04;2.95;;;1.27;;
44204;SDS011;30163;42.698;23.344;2022-07-18T09:00:29;4.00;;;1.30;;
44204;SDS011;30163;42.698;23.344;2022-07-18T09:02:58;5.05;;;1.92;;
44204;SDS011;30163;42.698;23.344;2022-07-18T09:05:27;17.83;;;1.50;;
44204;SDS011;30163;42.698;23.344;2022-07-18T09:08:07;3.22;;;1.60;;
44204;SDS011;30163;42.698;23.344;2022-07-18T09:10:40;2.42;;;1.73;;
44204;SDS011;30163;42.698;23.344;2022-07-18T09:13:16;4.13;;;1.38;;
44204;SDS011;30163;42.698;23.344;2022-07-18T09:15:58;3.00;;;1.45;;
44204;SDS011;30163;42.698;23.344;2022-07-18T09:18:31;4.45;;;1.48;;
44204;SDS011;30163;42.698;23.344;2022-07-18T09:21:01;2.50;;;1.38;;
44204;SDS011;30163;42.698;23.344;2022-07-18T09:23:32;2.03;;;1.23;;
44204;SDS011;30163;42.698;23.344;2022-07-18T09:25:58;2.55;;;1.63;;
44204;SDS011;30163;42.698;23.344;2022-07-18T09:28:25;4.65;;;1.45;;
44204;SDS011;30163;42.698;23.344;2022-07-18T09:30:51;13.38;;;1.58;;
44204;SDS011;30163;42.698;23.344;2022-07-18T09:33:17;13.98;;;2.92;;
44204;SDS011;30163;42.698;23.344;2022-07-18T09:35:46;3.03;;;1.77;;
44204;SDS011;30163;42.698;23.344;2022-07-18T09:38:19;8.32;;;1.95;;
44204;SDS011;30163;42.698;23.344;2022-07-18T09:40:47;8.27;;;1.50;;
44204;SDS011;30163;42.698;23.344;2022-07-18T09:43:14;3.03;;;1.52;;
44204;SDS011;30163;42.698;23.344;2022-07-18T09:48:18;2.85;;;1.58;;
44204;SDS011;30163;42.698;23.344;2022-07-18T09:50:51;2.50;;;1.60;;
44204;SDS011;30163;42.698;23.344;2022-07-18T09:53:21;5.43;;;1.90;;
44204;SDS011;30163;42.698;23.344;2022-07-18T09:55:56;8.07;;;1.83;;
44204;SDS011;30163;42.698;23.344;2022-07-18T09:58:24;2.75;;;1.55;;
44204;SDS011;30163;42.698;23.344;2022-07-18T10:00:51;3.50;;;1.50;;
44204;SDS011;30163;42.698;23.344;2022-07-18T10:03:38;11.27;;;1.60;;
44204;SDS011;30163;42.698;23.344;2022-07-18T10:06:06;1.83;;;1.50;;
44204;SDS011;30163;42.698;23.344;2022-07-18T10:08:32;9.02;;;1.95;;
44204;SDS011;30163;42.698;23.344;2022-07-18T10:10:59;7.30;;;2.45;;
44204;SDS011;30163;42.698;23.344;2022-07-18T10:13:27;4.30;;;1.65;;
44204;SDS011;30163;42.698;23.344;2022-07-18T10:15:54;7.72;;;1.52;;
44204;SDS011;30163;42.698;23.344;2022-07-18T10:18:20;3.85;;;2.03;;
44204;SDS011;30163;42.698;23.344;2022-07-18T10:23:40;6.03;;;3.67;;
44204;SDS011;30163;42.698;23.344;2022-07-18T10:26:11;3.75;;;2.33;;
44204;SDS011;30163;42.698;23.344;2022-07-18T10:33:54;3.00;;;1.77;;
44204;SDS011;30163;42.698;23.344;2022-07-18T10:39:13;4.85;;;2.30;;
44204;SDS011;30163;42.698;23.344;2022-07-18T10:42:12;4.78;;;1.98;;
44204;SDS011;30163;42.698;23.344;2022-07-18T10:44:34;16.27;;;2.33;;
44204;SDS011;30163;42.698;23.344;2022-07-18T10:47:09;4.95;;;2.20;;
44204;SDS011;30163;42.698;23.344;2022-07-18T10:58:27;10.88;;;2.63;;
44204;SDS011;30163;42.698;23.344;2022-07-18T11:00:35;6.72;;;2.63;;
44204;SDS011;30163;42.698;23.344;2022-07-18T11:15:56;3.00;;;1.80;;
44204;SDS011;30163;42.698;23.344;2022-07-18T11:18:25;6.63;;;2.50;;
44204;SDS011;30163;42.698;23.344;2022-07-18T11:20:51;2.20;;;1.77;;
44204;SDS011;30163;42.698;23.344;2022-07-18T11:23:21;3.17;;;1.98;;
44204;SDS011;30163;42.698;23.344;2022-07-18T11:25:49;7.30;;;2.80;;
44204;SDS011;30163;42.698;23.344;2022-07-18T11:28:15;3.70;;;2.20;;
44204;SDS011;30163;42.698;23.344;2022-07-18T11:30:42;2.28;;;1.90;;
44204;SDS011;30163;42.698;23.344;2022-07-18T11:33:20;2.67;;;2.10;;
44204;SDS011;30163;42.698;23.344;2022-07-18T11:35:50;6.95;;;2.47;;
44204;SDS011;30163;42.698;23.344;2022-07-18T11:38:15;4.65;;;2.20;;
44204;SDS011;30163;42.698;23.344;2022-07-18T11:40:50;3.10;;;1.77;;
44204;SDS011;30163;42.698;23.344;2022-07-18T11:43:20;4.13;;;2.17;;
44204;SDS011;30163;42.698;23.344;2022-07-18T11:46:05;3.80;;;2.03;;
44204;SDS011;30163;42.698;23.344;2022-07-18T11:48:33;4.22;;;2.42;;
44204;SDS011;30163;42.698;23.344;2022-07-18T11:50:59;5.93;;;2.20;;
44204;SDS011;30163;42.698;23.344;2022-07-18T11:53:25;6.28;;;2.60;;
44204;SDS011;30163;42.698;23.344;2022-07-18T11:55:52;3.97;;;1.88;;
44204;SDS011;30163;42.698;23.344;2022-07-18T11:58:18;2.80;;;1.58;;
44204;SDS011;30163;42.698;23.344;2022-07-18T12:00:44;4.22;;;2.03;;
44204;SDS011;30163;42.698;23.344;2022-07-18T12:03:17;2.40;;;1.75;;
44204;SDS011;30163;42.698;23.344;2022-07-18T12:05:48;7.78;;;2.33;;
44204;SDS011;30163;42.698;23.344;2022-07-18T12:08:37;6.28;;;2.13;;
44204;SDS011;30163;42.698;23.344;2022-07-18T12:11:11;6.60;;;2.25;;
44204;SDS011;30163;42.698;23.344;2022-07-18T12:13:44;6.13;;;2.22;;
44204;SDS011;30163;42.698;23.344;2022-07-18T12:16:30;10.70;;;2.70;;
44204;SDS011;30163;42.698;23.344;2022-07-18T12:19:01;2.40;;;1.90;;
44204;SDS011;30163;42.698;23.344;2022-07-18T12:21:42;5.63;;;2.15;;
44204;SDS011;30163;42.698;23.344;2022-07-18T12:26:44;3.47;;;2.13;;
44204;SDS011;30163;42.698;23.344;2022-07-18T12:29:09;5.95;;;2.28;;
44204;SDS011;30163;42.698;23.344;2022-07-18T12:31:36;5.43;;;2.53;;
44204;SDS011;30163;42.698;23.344;2022-07-18T12:34:12;4.63;;;2.10;;
44204;SDS011;30163;42.698;23.344;2022-07-18T12:36:54;2.00;;;1.80;;
44204;SDS011;30163;42.698;23.344;2022-07-18T12:39:29;5.68;;;2.15;;
44204;SDS011;30163;42.698;23.344;2022-07-18T12:41:56;4.40;;;2.33;;
44204;SDS011;30163;42.698;23.344;2022-07-18T12:44:22;4.65;;;2.28;;
44204;SDS011;30163;42.698;23.344;2022-07-18T12:46:48;2.47;;;1.85;;
44204;SDS011;30163;42.698;23.344;2022-07-18T12:49:14;6.25;;;2.63;;
44204;SDS011;30163;42.698;23.344;2022-07-18T12:51:39;10.70;;;3.03;;
44204;SDS011;30163;42.698;23.344;2022-07-18T12:54:05;4.63;;;2.13;;
44204;SDS011;30163;42.698;23.344;2022-07-18T12:56:30;8.02;;;2.40;;
44204;SDS011;30163;42.698;23.344;2022-07-18T12:58:56;3.75;;;1.90;;
44204;SDS011;30163;42.698;23.344;2022-07-18T13:01:22;6.72;;;2.30;;
44204;SDS011;30163;42.698;23.344;2022-07-18T13:03:47;3.38;;;2.00;;
44204;SDS011;30163;42.698;23.344;2022-07-18T13:06:12;5.32;;;2.70;;
44204;SDS011;30163;42.698;23.344;2022-07-18T13:08:38;3.35;;;2.10;;
44204;SDS011;30163;42.698;23.344;2022-07-18T13:11:03;4.50;;;2.15;;
44204;SDS011;30163;42.698;23.344;2022-07-18T13:13:29;2.95;;;2.00;;
44204;SDS011;30163;42.698;23.344;2022-07-18T13:15:54;9.85;;;2.65;;
44204;SDS011;30163;42.698;23.344;2022-07-18T13:18:20;3.38;;;2.15;;
44204;SDS011;30163;42.698;23.344;2022-07-18T13:20:45;5.78;;;2.35;;
44204;SDS011;30163;42.698;23.344;2022-07-18T13:23:11;5.30;;;2.53;;
44204;SDS011;30163;42.698;23.344;2022-07-18T13:25:39;3.67;;;2.20;;
44204;SDS011;30163;42.698;23.344;2022-07-18T13:28:04;7.03;;;2.05;;
44204;SDS011;30163;42.698;23.344;2022-07-18T13:30:30;2.17;;;1.73;;
44204;SDS011;30163;42.698;23.344;2022-07-18T13:32:55;3.25;;;2.25;;
44204;SDS011;30163;42.698;23.344;2022-07-18T13:35:21;6.20;;;2.05;;
44204;SDS011;30163;42.698;23.344;2022-07-18T13:37:46;4.65;;;2.40;;
44204;SDS011;30163;42.698;23.344;2022-07-18T13:40:12;4.90;;;2.60;;
44204;SDS011;30163;42.698;23.344;2022-07-18T13:42:38;3.70;;;2.22;;
44204;SDS011;30163;42.698;23.344;2022-07-18T13:45:04;5.35;;;2.63;;
44204;SDS011;30163;42.698;23.344;2022-07-18T13:47:30;3.70;;;2.20;;
44204;SDS011;30163;42.698;23.344;2022-07-18T13:49:56;10.75;;;2.58;;
44204;SDS011;30163;42.698;23.344;2022-07-18T13:52:21;11.20;;;2.95;;
44204;SDS011;30163;42.698;23.344;2022-07-18T13:54:46;5.22;;;2.28;;
44204;SDS011;30163;42.698;23.344;2022-07-18T13:57:14;3.05;;;2.00;;
44204;SDS011;30163;42.698;23.344;2022-07-18T13:59:39;4.00;;;2.33;;
44204;SDS011;30163;42.698;23.344;2022-07-18T14:02:05;3.00;;;2.22;;
44204;SDS011;30163;42.698;23.344;2022-07-18T14:04:30;3.08;;;2.20;;
44204;SDS011;30163;42.698;23.344;2022-07-18T14:06:56;12.65;;;2.45;;
44204;SDS011;30163;42.698;23.344;2022-07-18T14:09:21;12.00;;;2.35;;
44204;SDS011;30163;42.698;23.344;2022-07-18T14:11:47;4.45;;;2.30;;
44204;SDS011;30163;42.698;23.344;2022-07-18T14:14:12;3.55;;;2.30;;
44204;SDS011;30163;42.698;23.344;2022-07-18T14:16:38;2.88;;;1.95;;
44204;SDS011;30163;42.698;23.344;2022-07-18T14:19:04;4.45;;;2.10;;
44204;SDS011;30163;42.698;23.344;2022-07-18T14:21:29;6.80;;;2.67;;
44204;SDS011;30163;42.698;23.344;2022-07-18T14:23:55;9.00;;;2.00;;
44204;SDS011;30163;42.698;23.344;2022-07-18T14:26:20;3.95;;;2.70;;
44204;SDS011;30163;42.698;23.344;2022-07-18T14:28:46;4.40;;;2.22;;
44204;SDS011;30163;42.698;23.344;2022-07-18T14:31:11;4.47;;;2.63;;
44204;SDS011;30163;42.698;23.344;2022-07-18T14:33:37;6.00;;;2.60;;
44204;SDS011;30163;42.698;23.344;2022-07-18T14:36:02;5.72;;;2.80;;
44204;SDS011;30163;42.698;23.344;2022-07-18T14:38:28;4.38;;;2.72;;
44204;SDS011;30163;42.698;23.344;2022-07-18T14:40:53;6.20;;;2.35;;
44204;SDS011;30163;42.698;23.344;2022-07-18T14:43:19;3.42;;;2.33;;
44204;SDS011;30163;42.698;23.344;2022-07-18T14:45:44;3.97;;;2.30;;
44204;SDS011;30163;42.698;23.344;2022-07-18T14:48:09;3.40;;;2.38;;
44204;SDS011;30163;42.698;23.344;2022-07-18T14:50:35;10.20;;;2.78;;
44204;SDS011;30163;42.698;23.344;2022-07-18T14:53:00;4.78;;;2.97;;
44204;SDS011;30163;42.698;23.344;2022-07-18T14:55:26;6.88;;;2.90;;
44204;SDS011;30163;42.698;23.344;2022-07-18T14:57:51;7.07;;;2.55;;
44204;SDS011;30163;42.698;23.344;2022-07-18T15:00:17;3.38;;;2.47;;
44204;SDS011;30163;42.698;23.344;2022-07-18T15:02:42;6.47;;;2.83;;
44204;SDS011;30163;42.698;23.344;2022-07-18T15:05:08;3.83;;;2.55;;
44204;SDS011;30163;42.698;23.344;2022-07-18T15:07:34;8.93;;;2.55;;
44204;SDS011;30163;42.698;23.344;2022-07-18T15:09:59;6.22;;;2.75;;
44204;SDS011;30163;42.698;23.344;2022-07-18T15:12:25;3.92;;;2.55;;